sensor_id;sensor_type;location;lat;lon;timestamp;temperature;humidity
19805;DHT22;10062;51.052;13.756;2023-03-19T00:02:29;9.60;1.00
19805;DHT22;10062;51.052;13.756;2023-03-19T00:05:03;9.60;1.00
19805;DHT22;10062;51.052;13.756;2023-03-19T00:07:35;9.50;1.00
19805;DHT22;10062;51.052;13.756;2023-03-19T00:10:07;9.40;1.00
19805;DHT22;10062;51.052;13.756;2023-03-19T00:12:39;9.30;1.00
19805;DHT22;10062;51.052;13.756;2023-03-19T00:15:11;9.30;1.00
19805;DHT22;10062;51.052;13.756;2023-03-19T00:17:43;9.20;1.00
19805;DHT22;10062;51.052;13.756;2023-03-19T00:20:16;9.20;1.00
19805;DHT22;10062;51.052;13.756;2023-03-19T00:22:49;9.20;1.00
19805;DHT22;10062;51.052;13.756;2023-03-19T00:25:21;9.20;1.00
19805;DHT22;10062;51.052;13.756;2023-03-19T00:27:53;9.10;1.00
19805;DHT22;10062;51.052;13.756;2023-03-19T00:30:24;9.10;1.00
19805;DHT22;10062;51.052;13.756;2023-03-19T00:32:56;9.10;1.00
19805;DHT22;10062;51.052;13.756;2023-03-19T00:35:29;9.20;1.00
19805;DHT22;10062;51.052;13.756;2023-03-19T00:38:03;9.20;1.00
19805;DHT22;10062;51.052;13.756;2023-03-19T00:40:35;9.30;1.00
19805;DHT22;10062;51.052;13.756;2023-03-19T00:43:07;9.30;1.00
19805;DHT22;10062;51.052;13.756;2023-03-19T00:45:38;9.40;1.00
19805;DHT22;10062;51.052;13.756;2023-03-19T00:48:12;9.10;1.00
19805;DHT22;10062;51.052;13.756;2023-03-19T00:50:45;9.00;1.00
19805;DHT22;10062;51.052;13.756;2023-03-19T00:53:17;9.00;1.00
19805;DHT22;10062;51.052;13.756;2023-03-19T00:55:49;9.10;1.00
19805;DHT22;10062;51.052;13.756;2023-03-19T00:58:21;9.10;1.00
19805;DHT22;10062;51.052;13.756;2023-03-19T01:00:53;9.10;1.00
19805;DHT22;10062;51.052;13.756;2023-03-19T01:03:25;9.10;1.00
19805;DHT22;10062;51.052;13.756;2023-03-19T01:05:58;9.20;1.00
19805;DHT22;10062;51.052;13.756;2023-03-19T01:08:30;9.10;1.00
19805;DHT22;10062;51.052;13.756;2023-03-19T01:11:04;9.30;1.00
19805;DHT22;10062;51.052;13.756;2023-03-19T01:13:36;9.30;1.00
19805;DHT22;10062;51.052;13.756;2023-03-19T01:16:08;9.40;1.00
19805;DHT22;10062;51.052;13.756;2023-03-19T01:18:41;9.50;1.00
19805;DHT22;10062;51.052;13.756;2023-03-19T01:21:14;9.10;1.00
19805;DHT22;10062;51.052;13.756;2023-03-19T01:23:50;8.90;1.00
19805;DHT22;10062;51.052;13.756;2023-03-19T01:26:22;8.90;1.00
19805;DHT22;10062;51.052;13.756;2023-03-19T01:28:58;8.80;1.00
19805;DHT22;10062;51.052;13.756;2023-03-19T01:31:31;8.80;1.00
19805;DHT22;10062;51.052;13.756;2023-03-19T01:34:16;8.70;1.00
19805;DHT22;10062;51.052;13.756;2023-03-19T01:36:56;8.70;1.00
19805;DHT22;10062;51.052;13.756;2023-03-19T01:39:36;8.70;1.00
19805;DHT22;10062;51.052;13.756;2023-03-19T01:42:12;8.70;1.00
19805;DHT22;10062;51.052;13.756;2023-03-19T01:44:52;8.70;1.00
19805;DHT22;10062;51.052;13.756;2023-03-19T01:47:50;8.70;1.00
19805;DHT22;10062;51.052;13.756;2023-03-19T01:50:43;8.70;1.00
19805;DHT22;10062;51.052;13.756;2023-03-19T01:53:38;8.60;1.00
19805;DHT22;10062;51.052;13.756;2023-03-19T01:56:29;8.60;1.00
19805;DHT22;10062;51.052;13.756;2023-03-19T01:59:11;8.70;1.00
19805;DHT22;10062;51.052;13.756;2023-03-19T02:02:24;8.80;1.00
19805;DHT22;10062;51.052;13.756;2023-03-19T02:05:02;8.80;1.00
19805;DHT22;10062;51.052;13.756;2023-03-19T02:07:37;8.80;1.00
19805;DHT22;10062;51.052;13.756;2023-03-19T02:10:14;8.80;1.00
19805;DHT22;10062;51.052;13.756;2023-03-19T02:12:47;8.80;1.00
19805;DHT22;10062;51.052;13.756;2023-03-19T02:15:19;8.70;1.00
19805;DHT22;10062;51.052;13.756;2023-03-19T02:17:51;8.70;1.00
19805;DHT22;10062;51.052;13.756;2023-03-19T02:20:26;8.70;1.00
19805;DHT22;10062;51.052;13.756;2023-03-19T02:23:06;8.80;1.00
19805;DHT22;10062;51.052;13.756;2023-03-19T02:25:52;8.70;1.00
19805;DHT22;10062;51.052;13.756;2023-03-19T02:28:25;8.70;1.00
19805;DHT22;10062;51.052;13.756;2023-03-19T02:30:58;8.80;1.00
19805;DHT22;10062;51.052;13.756;2023-03-19T02:33:30;8.70;1.00
19805;DHT22;10062;51.052;13.756;2023-03-19T02:36:02;8.70;1.00
19805;DHT22;10062;51.052;13.756;2023-03-19T02:38:36;8.80;1.00
19805;DHT22;10062;51.052;13.756;2023-03-19T02:41:10;8.70;1.00
19805;DHT22;10062;51.052;13.756;2023-03-19T02:43:43;8.60;1.00
19805;DHT22;10062;51.052;13.756;2023-03-19T02:46:16;8.60;1.00
19805;DHT22;10062;51.052;13.756;2023-03-19T02:48:48;8.70;1.00
19805;DHT22;10062;51.052;13.756;2023-03-19T02:51:19;8.60;1.00
19805;DHT22;10062;51.052;13.756;2023-03-19T02:53:51;8.60;1.00
19805;DHT22;10062;51.052;13.756;2023-03-19T02:56:24;8.60;1.00
19805;DHT22;10062;51.052;13.756;2023-03-19T02:58:56;8.70;1.00
19805;DHT22;10062;51.052;13.756;2023-03-19T03:01:27;9.40;1.00
19805;DHT22;10062;51.052;13.756;2023-03-19T03:03:59;8.70;1.00
19805;DHT22;10062;51.052;13.756;2023-03-19T03:06:31;8.70;1.00
19805;DHT22;10062;51.052;13.756;2023-03-19T03:09:05;8.60;1.00
19805;DHT22;10062;51.052;13.756;2023-03-19T03:11:39;8.60;1.00
19805;DHT22;10062;51.052;13.756;2023-03-19T03:14:12;8.70;1.00
19805;DHT22;10062;51.052;13.756;2023-03-19T03:16:45;8.70;1.00
19805;DHT22;10062;51.052;13.756;2023-03-19T03:19:17;8.70;1.00
19805;DHT22;10062;51.052;13.756;2023-03-19T03:21:48;8.70;1.00
19805;DHT22;10062;51.052;13.756;2023-03-19T03:24:20;8.70;1.00
19805;DHT22;10062;51.052;13.756;2023-03-19T03:26:53;8.50;1.00
19805;DHT22;10062;51.052;13.756;2023-03-19T03:29:25;8.40;1.00
19805;DHT22;10062;51.052;13.756;2023-03-19T03:31:57;8.40;1.00
19805;DHT22;10062;51.052;13.756;2023-03-19T03:34:28;8.60;1.00
19805;DHT22;10062;51.052;13.756;2023-03-19T03:37:00;8.50;1.00
19805;DHT22;10062;51.052;13.756;2023-03-19T03:39:32;9.00;1.00
19805;DHT22;10062;51.052;13.756;2023-03-19T03:42:05;8.30;1.00
19805;DHT22;10062;51.052;13.756;2023-03-19T03:44:38;8.20;1.00
19805;DHT22;10062;51.052;13.756;2023-03-19T03:47:11;8.30;1.00
19805;DHT22;10062;51.052;13.756;2023-03-19T03:49:43;8.30;1.00
19805;DHT22;10062;51.052;13.756;2023-03-19T03:52:15;8.30;1.00
19805;DHT22;10062;51.052;13.756;2023-03-19T03:54:47;8.10;1.00
19805;DHT22;10062;51.052;13.756;2023-03-19T03:57:20;8.10;1.00
19805;DHT22;10062;51.052;13.756;2023-03-19T03:59:52;8.00;1.00
19805;DHT22;10062;51.052;13.756;2023-03-19T04:02:23;8.00;1.00
19805;DHT22;10062;51.052;13.756;2023-03-19T04:04:56;8.00;1.00
19805;DHT22;10062;51.052;13.756;2023-03-19T04:07:28;7.90;1.00
19805;DHT22;10062;51.052;13.756;2023-03-19T04:10:00;8.10;1.00
19805;DHT22;10062;51.052;13.756;2023-03-19T04:12:35;7.90;1.00
19805;DHT22;10062;51.052;13.756;2023-03-19T04:15:09;7.80;1.00
19805;DHT22;10062;51.052;13.756;2023-03-19T04:17:42;7.80;1.00
19805;DHT22;10062;51.052;13.756;2023-03-19T04:20:15;7.80;1.00
19805;DHT22;10062;51.052;13.756;2023-03-19T04:22:48;7.80;1.00
19805;DHT22;10062;51.052;13.756;2023-03-19T04:25:19;7.80;1.00
19805;DHT22;10062;51.052;13.756;2023-03-19T04:27:52;7.90;1.00
19805;DHT22;10062;51.052;13.756;2023-03-19T04:30:27;7.80;1.00
19805;DHT22;10062;51.052;13.756;2023-03-19T04:32:59;7.90;1.00
19805;DHT22;10062;51.052;13.756;2023-03-19T04:35:31;7.80;1.00
19805;DHT22;10062;51.052;13.756;2023-03-19T04:38:02;8.00;1.00
19805;DHT22;10062;51.052;13.756;2023-03-19T04:40:35;7.80;1.00
19805;DHT22;10062;51.052;13.756;2023-03-19T04:43:08;7.80;1.00
19805;DHT22;10062;51.052;13.756;2023-03-19T04:45:40;7.70;1.00
19805;DHT22;10062;51.052;13.756;2023-03-19T04:48:12;7.70;1.00
19805;DHT22;10062;51.052;13.756;2023-03-19T04:50:45;7.80;1.00
19805;DHT22;10062;51.052;13.756;2023-03-19T04:53:17;7.80;1.00
19805;DHT22;10062;51.052;13.756;2023-03-19T04:55:51;7.80;1.00
19805;DHT22;10062;51.052;13.756;2023-03-19T04:58:25;7.70;1.00
19805;DHT22;10062;51.052;13.756;2023-03-19T05:01:03;7.80;1.00
19805;DHT22;10062;51.052;13.756;2023-03-19T05:03:54;7.70;1.00
19805;DHT22;10062;51.052;13.756;2023-03-19T05:06:26;7.70;1.00
19805;DHT22;10062;51.052;13.756;2023-03-19T05:08:58;7.70;1.00
19805;DHT22;10062;51.052;13.756;2023-03-19T05:11:30;7.70;1.00
19805;DHT22;10062;51.052;13.756;2023-03-19T05:14:23;7.70;1.00
19805;DHT22;10062;51.052;13.756;2023-03-19T05:17:04;7.60;1.00
19805;DHT22;10062;51.052;13.756;2023-03-19T05:19:50;7.60;1.00
19805;DHT22;10062;51.052;13.756;2023-03-19T05:22:22;7.60;1.00
19805;DHT22;10062;51.052;13.756;2023-03-19T05:24:56;7.60;1.00
19805;DHT22;10062;51.052;13.756;2023-03-19T05:27:28;7.50;1.00
19805;DHT22;10062;51.052;13.756;2023-03-19T05:30:11;7.60;1.00
19805;DHT22;10062;51.052;13.756;2023-03-19T05:33:02;7.60;1.00
19805;DHT22;10062;51.052;13.756;2023-03-19T05:35:43;7.60;1.00
19805;DHT22;10062;51.052;13.756;2023-03-19T05:38:25;7.50;1.00
19805;DHT22;10062;51.052;13.756;2023-03-19T05:41:07;7.50;1.00
19805;DHT22;10062;51.052;13.756;2023-03-19T05:43:50;7.60;1.00
19805;DHT22;10062;51.052;13.756;2023-03-19T05:46:41;7.60;1.00
19805;DHT22;10062;51.052;13.756;2023-03-19T05:49:14;7.60;1.00
19805;DHT22;10062;51.052;13.756;2023-03-19T05:51:46;7.60;1.00
19805;DHT22;10062;51.052;13.756;2023-03-19T05:54:18;7.70;1.00
19805;DHT22;10062;51.052;13.756;2023-03-19T05:56:58;7.60;1.00
19805;DHT22;10062;51.052;13.756;2023-03-19T05:59:38;7.60;1.00
19805;DHT22;10062;51.052;13.756;2023-03-19T06:02:31;7.70;1.00
19805;DHT22;10062;51.052;13.756;2023-03-19T06:05:20;7.80;1.00
19805;DHT22;10062;51.052;13.756;2023-03-19T06:07:52;7.80;1.00
19805;DHT22;10062;51.052;13.756;2023-03-19T06:10:37;7.90;1.00
19805;DHT22;10062;51.052;13.756;2023-03-19T06:13:14;7.90;1.00
19805;DHT22;10062;51.052;13.756;2023-03-19T06:16:03;8.10;1.00
19805;DHT22;10062;51.052;13.756;2023-03-19T06:18:42;8.00;1.00
19805;DHT22;10062;51.052;13.756;2023-03-19T06:21:17;8.10;1.00
19805;DHT22;10062;51.052;13.756;2023-03-19T06:23:49;8.10;1.00
19805;DHT22;10062;51.052;13.756;2023-03-19T06:26:25;8.00;1.00
19805;DHT22;10062;51.052;13.756;2023-03-19T06:28:59;8.10;1.00
19805;DHT22;10062;51.052;13.756;2023-03-19T06:31:31;8.10;1.00
19805;DHT22;10062;51.052;13.756;2023-03-19T06:34:14;8.20;1.00
19805;DHT22;10062;51.052;13.756;2023-03-19T06:36:48;8.30;1.00
19805;DHT22;10062;51.052;13.756;2023-03-19T06:39:22;8.30;1.00
19805;DHT22;10062;51.052;13.756;2023-03-19T06:41:54;8.40;1.00
19805;DHT22;10062;51.052;13.756;2023-03-19T06:44:29;8.60;1.00
19805;DHT22;10062;51.052;13.756;2023-03-19T06:47:00;8.80;99.90
19805;DHT22;10062;51.052;13.756;2023-03-19T06:49:34;8.80;99.90
19805;DHT22;10062;51.052;13.756;2023-03-19T06:52:05;8.90;99.90
19805;DHT22;10062;51.052;13.756;2023-03-19T06:54:37;9.10;99.90
19805;DHT22;10062;51.052;13.756;2023-03-19T06:57:09;9.20;99.90
19805;DHT22;10062;51.052;13.756;2023-03-19T06:59:40;9.50;99.90
19805;DHT22;10062;51.052;13.756;2023-03-19T07:02:12;9.80;99.90
19805;DHT22;10062;51.052;13.756;2023-03-19T07:04:46;10.00;99.90
19805;DHT22;10062;51.052;13.756;2023-03-19T07:07:17;10.50;99.90
19805;DHT22;10062;51.052;13.756;2023-03-19T07:09:49;11.00;73.60
19805;DHT22;10062;51.052;13.756;2023-03-19T07:12:21;11.40;1.00
19805;DHT22;10062;51.052;13.756;2023-03-19T07:14:53;11.70;1.00
19805;DHT22;10062;51.052;13.756;2023-03-19T07:17:25;11.40;1.00
19805;DHT22;10062;51.052;13.756;2023-03-19T07:19:58;10.90;1.00
19805;DHT22;10062;51.052;13.756;2023-03-19T07:22:30;11.20;1.00
19805;DHT22;10062;51.052;13.756;2023-03-19T07:25:01;11.70;1.00
19805;DHT22;10062;51.052;13.756;2023-03-19T07:27:33;11.80;1.00
19805;DHT22;10062;51.052;13.756;2023-03-19T07:30:05;11.30;1.00
19805;DHT22;10062;51.052;13.756;2023-03-19T07:32:37;11.60;1.00
19805;DHT22;10062;51.052;13.756;2023-03-19T07:35:10;12.20;1.00
19805;DHT22;10062;51.052;13.756;2023-03-19T07:37:43;12.40;1.00
19805;DHT22;10062;51.052;13.756;2023-03-19T07:40:15;12.60;1.00
19805;DHT22;10062;51.052;13.756;2023-03-19T07:42:47;12.80;1.00
19805;DHT22;10062;51.052;13.756;2023-03-19T07:45:18;12.50;1.00
19805;DHT22;10062;51.052;13.756;2023-03-19T07:47:51;12.40;1.00
19805;DHT22;10062;51.052;13.756;2023-03-19T07:50:24;12.70;1.00
19805;DHT22;10062;51.052;13.756;2023-03-19T07:52:56;13.00;1.00
19805;DHT22;10062;51.052;13.756;2023-03-19T07:55:27;12.30;1.00
19805;DHT22;10062;51.052;13.756;2023-03-19T07:57:59;12.40;1.00
19805;DHT22;10062;51.052;13.756;2023-03-19T08:00:31;13.10;1.00
19805;DHT22;10062;51.052;13.756;2023-03-19T08:03:03;12.70;1.00
19805;DHT22;10062;51.052;13.756;2023-03-19T08:05:36;12.40;1.00
19805;DHT22;10062;51.052;13.756;2023-03-19T08:08:07;12.80;1.00
19805;DHT22;10062;51.052;13.756;2023-03-19T08:10:39;12.50;1.00
19805;DHT22;10062;51.052;13.756;2023-03-19T08:13:11;12.90;1.00
19805;DHT22;10062;51.052;13.756;2023-03-19T08:15:43;13.10;1.00
19805;DHT22;10062;51.052;13.756;2023-03-19T08:18:15;12.90;1.00
19805;DHT22;10062;51.052;13.756;2023-03-19T08:20:48;13.70;1.00
19805;DHT22;10062;51.052;13.756;2023-03-19T08:23:20;14.10;1.00
19805;DHT22;10062;51.052;13.756;2023-03-19T08:25:52;14.10;1.00
19805;DHT22;10062;51.052;13.756;2023-03-19T08:28:25;13.80;1.00
19805;DHT22;10062;51.052;13.756;2023-03-19T08:30:57;13.60;1.00
19805;DHT22;10062;51.052;13.756;2023-03-19T08:33:29;13.80;1.00
19805;DHT22;10062;51.052;13.756;2023-03-19T08:36:07;14.40;1.00
19805;DHT22;10062;51.052;13.756;2023-03-19T08:38:39;14.30;1.00
19805;DHT22;10062;51.052;13.756;2023-03-19T08:41:11;14.10;1.00
19805;DHT22;10062;51.052;13.756;2023-03-19T08:43:43;14.30;1.00
19805;DHT22;10062;51.052;13.756;2023-03-19T08:46:15;14.10;1.00
19805;DHT22;10062;51.052;13.756;2023-03-19T08:48:47;13.60;1.00
19805;DHT22;10062;51.052;13.756;2023-03-19T08:51:20;13.60;1.00
19805;DHT22;10062;51.052;13.756;2023-03-19T08:53:53;13.90;1.00
19805;DHT22;10062;51.052;13.756;2023-03-19T08:56:25;13.90;1.00
19805;DHT22;10062;51.052;13.756;2023-03-19T08:58:57;14.20;1.00
19805;DHT22;10062;51.052;13.756;2023-03-19T09:01:28;14.30;1.00
19805;DHT22;10062;51.052;13.756;2023-03-19T09:04:00;13.90;1.00
19805;DHT22;10062;51.052;13.756;2023-03-19T09:06:34;13.90;1.00
19805;DHT22;10062;51.052;13.756;2023-03-19T09:09:15;14.90;1.00
19805;DHT22;10062;51.052;13.756;2023-03-19T09:11:51;15.30;1.00
19805;DHT22;10062;51.052;13.756;2023-03-19T09:14:22;15.80;1.00
19805;DHT22;10062;51.052;13.756;2023-03-19T09:16:54;17.60;1.00
19805;DHT22;10062;51.052;13.756;2023-03-19T09:19:26;15.90;1.00
19805;DHT22;10062;51.052;13.756;2023-03-19T09:21:59;17.10;1.00
19805;DHT22;10062;51.052;13.756;2023-03-19T09:24:31;17.40;1.00
19805;DHT22;10062;51.052;13.756;2023-03-19T09:27:02;18.10;1.00
19805;DHT22;10062;51.052;13.756;2023-03-19T09:29:34;19.40;1.00
19805;DHT22;10062;51.052;13.756;2023-03-19T09:32:06;20.20;1.00
19805;DHT22;10062;51.052;13.756;2023-03-19T09:34:38;20.60;1.00
19805;DHT22;10062;51.052;13.756;2023-03-19T09:37:11;19.80;1.00
19805;DHT22;10062;51.052;13.756;2023-03-19T09:39:43;20.10;1.00
19805;DHT22;10062;51.052;13.756;2023-03-19T09:42:26;19.90;1.00
19805;DHT22;10062;51.052;13.756;2023-03-19T09:45:02;20.30;1.00
19805;DHT22;10062;51.052;13.756;2023-03-19T09:47:35;20.70;1.00
19805;DHT22;10062;51.052;13.756;2023-03-19T09:50:12;21.30;1.00
19805;DHT22;10062;51.052;13.756;2023-03-19T09:52:47;21.40;1.00
19805;DHT22;10062;51.052;13.756;2023-03-19T09:55:29;20.60;1.00
19805;DHT22;10062;51.052;13.756;2023-03-19T09:58:11;20.40;1.00
19805;DHT22;10062;51.052;13.756;2023-03-19T10:00:47;20.70;1.00
19805;DHT22;10062;51.052;13.756;2023-03-19T10:03:31;21.00;1.00
19805;DHT22;10062;51.052;13.756;2023-03-19T10:06:22;19.70;1.00
19805;DHT22;10062;51.052;13.756;2023-03-19T10:09:20;20.30;1.00
19805;DHT22;10062;51.052;13.756;2023-03-19T10:12:09;21.60;1.00
19805;DHT22;10062;51.052;13.756;2023-03-19T10:17:48;24.10;1.00
19805;DHT22;10062;51.052;13.756;2023-03-19T10:23:27;24.70;1.00
19805;DHT22;10062;51.052;13.756;2023-03-19T10:26:05;25.40;1.00
19805;DHT22;10062;51.052;13.756;2023-03-19T10:28:42;26.70;1.00
19805;DHT22;10062;51.052;13.756;2023-03-19T10:31:24;27.20;1.00
19805;DHT22;10062;51.052;13.756;2023-03-19T10:34:10;28.40;1.00
19805;DHT22;10062;51.052;13.756;2023-03-19T10:36:44;27.40;1.00
19805;DHT22;10062;51.052;13.756;2023-03-19T10:39:17;25.30;1.00
19805;DHT22;10062;51.052;13.756;2023-03-19T10:41:59;24.50;1.00
19805;DHT22;10062;51.052;13.756;2023-03-19T10:44:37;25.00;1.00
19805;DHT22;10062;51.052;13.756;2023-03-19T10:47:12;25.30;1.00
19805;DHT22;10062;51.052;13.756;2023-03-19T10:49:44;25.40;1.00
19805;DHT22;10062;51.052;13.756;2023-03-19T10:52:19;25.00;1.00
19805;DHT22;10062;51.052;13.756;2023-03-19T10:54:54;24.70;1.00
19805;DHT22;10062;51.052;13.756;2023-03-19T10:57:28;24.90;1.00
19805;DHT22;10062;51.052;13.756;2023-03-19T11:00:02;24.80;1.00
19805;DHT22;10062;51.052;13.756;2023-03-19T11:02:36;24.30;1.00
19805;DHT22;10062;51.052;13.756;2023-03-19T11:05:24;23.30;1.00
19805;DHT22;10062;51.052;13.756;2023-03-19T11:07:58;22.50;1.00
19805;DHT22;10062;51.052;13.756;2023-03-19T11:10:32;21.60;1.00
19805;DHT22;10062;51.052;13.756;2023-03-19T11:13:14;20.00;1.00
19805;DHT22;10062;51.052;13.756;2023-03-19T11:15:48;20.20;1.00
19805;DHT22;10062;51.052;13.756;2023-03-19T11:18:23;20.80;1.00
19805;DHT22;10062;51.052;13.756;2023-03-19T11:20:58;21.30;1.00
19805;DHT22;10062;51.052;13.756;2023-03-19T11:23:38;21.50;1.00
19805;DHT22;10062;51.052;13.756;2023-03-19T11:26:17;20.60;1.00
19805;DHT22;10062;51.052;13.756;2023-03-19T11:28:51;20.20;1.00
19805;DHT22;10062;51.052;13.756;2023-03-19T11:31:27;20.30;1.00
19805;DHT22;10062;51.052;13.756;2023-03-19T11:34:14;19.70;1.00
19805;DHT22;10062;51.052;13.756;2023-03-19T11:36:52;18.40;1.00
19805;DHT22;10062;51.052;13.756;2023-03-19T11:39:27;18.40;1.00
19805;DHT22;10062;51.052;13.756;2023-03-19T11:42:20;18.40;1.00
19805;DHT22;10062;51.052;13.756;2023-03-19T11:45:05;18.90;1.00
19805;DHT22;10062;51.052;13.756;2023-03-19T11:47:48;19.00;1.00
19805;DHT22;10062;51.052;13.756;2023-03-19T11:50:25;18.70;1.00
19805;DHT22;10062;51.052;13.756;2023-03-19T11:53:06;18.80;1.00
19805;DHT22;10062;51.052;13.756;2023-03-19T11:55:46;18.90;1.00
19805;DHT22;10062;51.052;13.756;2023-03-19T11:58:35;19.30;1.00
19805;DHT22;10062;51.052;13.756;2023-03-19T12:01:24;19.80;1.00
19805;DHT22;10062;51.052;13.756;2023-03-19T12:04:14;20.10;1.00
19805;DHT22;10062;51.052;13.756;2023-03-19T12:06:55;20.10;1.00
19805;DHT22;10062;51.052;13.756;2023-03-19T12:09:34;20.40;1.00
19805;DHT22;10062;51.052;13.756;2023-03-19T12:12:15;20.40;1.00
19805;DHT22;10062;51.052;13.756;2023-03-19T12:15:00;20.40;1.00
19805;DHT22;10062;51.052;13.756;2023-03-19T12:17:48;20.30;1.00
19805;DHT22;10062;51.052;13.756;2023-03-19T12:20:29;20.10;1.00
19805;DHT22;10062;51.052;13.756;2023-03-19T12:23:16;20.20;1.00
19805;DHT22;10062;51.052;13.756;2023-03-19T12:25:58;20.20;1.00
19805;DHT22;10062;51.052;13.756;2023-03-19T12:28:37;19.60;1.00
19805;DHT22;10062;51.052;13.756;2023-03-19T12:31:35;19.70;1.00
19805;DHT22;10062;51.052;13.756;2023-03-19T12:34:19;19.50;1.00
19805;DHT22;10062;51.052;13.756;2023-03-19T12:37:02;19.20;1.00
19805;DHT22;10062;51.052;13.756;2023-03-19T12:39:39;18.10;1.00
19805;DHT22;10062;51.052;13.756;2023-03-19T12:42:15;17.70;1.00
19805;DHT22;10062;51.052;13.756;2023-03-19T12:44:52;17.60;1.00
19805;DHT22;10062;51.052;13.756;2023-03-19T12:47:31;17.60;1.00
19805;DHT22;10062;51.052;13.756;2023-03-19T12:50:09;17.70;1.00
19805;DHT22;10062;51.052;13.756;2023-03-19T12:52:43;18.00;1.00
19805;DHT22;10062;51.052;13.756;2023-03-19T12:55:20;17.60;1.00
19805;DHT22;10062;51.052;13.756;2023-03-19T12:57:54;17.60;1.00
19805;DHT22;10062;51.052;13.756;2023-03-19T13:00:31;17.50;1.00
19805;DHT22;10062;51.052;13.756;2023-03-19T13:03:08;17.60;1.00
19805;DHT22;10062;51.052;13.756;2023-03-19T13:05:46;17.60;1.00
19805;DHT22;10062;51.052;13.756;2023-03-19T13:08:21;17.60;1.00
19805;DHT22;10062;51.052;13.756;2023-03-19T13:10:54;17.70;1.00
19805;DHT22;10062;51.052;13.756;2023-03-19T13:13:38;17.70;1.00
19805;DHT22;10062;51.052;13.756;2023-03-19T13:16:23;17.60;1.00
19805;DHT22;10062;51.052;13.756;2023-03-19T13:19:05;17.30;1.00
19805;DHT22;10062;51.052;13.756;2023-03-19T13:21:42;17.40;1.00
19805;DHT22;10062;51.052;13.756;2023-03-19T13:24:19;17.50;1.00
19805;DHT22;10062;51.052;13.756;2023-03-19T13:26:53;17.30;1.00
19805;DHT22;10062;51.052;13.756;2023-03-19T13:29:26;17.10;1.00
19805;DHT22;10062;51.052;13.756;2023-03-19T13:32:00;17.20;1.00
19805;DHT22;10062;51.052;13.756;2023-03-19T13:34:34;16.90;1.00
19805;DHT22;10062;51.052;13.756;2023-03-19T13:37:12;16.80;1.00
19805;DHT22;10062;51.052;13.756;2023-03-19T13:39:45;16.70;1.00
19805;DHT22;10062;51.052;13.756;2023-03-19T13:42:34;17.00;1.00
19805;DHT22;10062;51.052;13.756;2023-03-19T13:45:27;17.20;1.00
19805;DHT22;10062;51.052;13.756;2023-03-19T13:48:31;17.40;1.00
19805;DHT22;10062;51.052;13.756;2023-03-19T13:51:22;17.50;1.00
19805;DHT22;10062;51.052;13.756;2023-03-19T13:54:04;17.20;1.00
19805;DHT22;10062;51.052;13.756;2023-03-19T13:57:01;17.00;1.00
19805;DHT22;10062;51.052;13.756;2023-03-19T13:59:36;17.10;1.00
19805;DHT22;10062;51.052;13.756;2023-03-19T14:05:17;17.50;1.00
19805;DHT22;10062;51.052;13.756;2023-03-19T14:07:52;17.40;1.00
19805;DHT22;10062;51.052;13.756;2023-03-19T14:10:27;17.40;1.00
19805;DHT22;10062;51.052;13.756;2023-03-19T14:13:02;17.30;1.00
19805;DHT22;10062;51.052;13.756;2023-03-19T14:15:39;17.50;1.00
19805;DHT22;10062;51.052;13.756;2023-03-19T14:18:20;17.50;1.00
19805;DHT22;10062;51.052;13.756;2023-03-19T14:20:58;17.60;1.00
19805;DHT22;10062;51.052;13.756;2023-03-19T14:23:31;17.50;1.00
19805;DHT22;10062;51.052;13.756;2023-03-19T14:26:15;17.40;1.00
19805;DHT22;10062;51.052;13.756;2023-03-19T14:28:52;17.30;1.00
19805;DHT22;10062;51.052;13.756;2023-03-19T14:31:30;17.30;1.00
19805;DHT22;10062;51.052;13.756;2023-03-19T14:34:23;17.30;1.00
19805;DHT22;10062;51.052;13.756;2023-03-19T14:36:57;17.10;1.00
19805;DHT22;10062;51.052;13.756;2023-03-19T14:39:33;17.20;1.00
19805;DHT22;10062;51.052;13.756;2023-03-19T14:42:17;17.20;1.00
19805;DHT22;10062;51.052;13.756;2023-03-19T14:45:19;17.10;1.00
19805;DHT22;10062;51.052;13.756;2023-03-19T14:48:16;17.10;1.00
19805;DHT22;10062;51.052;13.756;2023-03-19T14:51:09;17.10;1.00
19805;DHT22;10062;51.052;13.756;2023-03-19T14:53:45;17.10;1.00
19805;DHT22;10062;51.052;13.756;2023-03-19T14:56:20;16.90;1.00
19805;DHT22;10062;51.052;13.756;2023-03-19T14:58:57;16.90;1.00
19805;DHT22;10062;51.052;13.756;2023-03-19T15:01:33;17.10;1.00
19805;DHT22;10062;51.052;13.756;2023-03-19T15:04:11;17.10;1.00
19805;DHT22;10062;51.052;13.756;2023-03-19T15:06:52;17.20;1.00
19805;DHT22;10062;51.052;13.756;2023-03-19T15:09:27;16.90;1.00
19805;DHT22;10062;51.052;13.756;2023-03-19T15:12:27;16.80;1.00
19805;DHT22;10062;51.052;13.756;2023-03-19T15:15:28;16.80;1.00
19805;DHT22;10062;51.052;13.756;2023-03-19T15:18:03;17.00;1.00
19805;DHT22;10062;51.052;13.756;2023-03-19T15:20:36;17.10;1.00
19805;DHT22;10062;51.052;13.756;2023-03-19T15:23:11;17.20;1.00
19805;DHT22;10062;51.052;13.756;2023-03-19T15:25:44;17.30;1.00
19805;DHT22;10062;51.052;13.756;2023-03-19T15:28:18;17.30;1.00
19805;DHT22;10062;51.052;13.756;2023-03-19T15:30:59;17.20;1.00
19805;DHT22;10062;51.052;13.756;2023-03-19T15:33:32;17.30;1.00
19805;DHT22;10062;51.052;13.756;2023-03-19T15:36:07;17.30;1.00
19805;DHT22;10062;51.052;13.756;2023-03-19T15:38:43;17.30;1.00
19805;DHT22;10062;51.052;13.756;2023-03-19T15:41:16;17.20;1.00
19805;DHT22;10062;51.052;13.756;2023-03-19T15:43:49;17.20;1.00
19805;DHT22;10062;51.052;13.756;2023-03-19T15:46:25;16.90;1.00
19805;DHT22;10062;51.052;13.756;2023-03-19T15:49:01;16.80;1.00
19805;DHT22;10062;51.052;13.756;2023-03-19T15:51:34;16.70;1.00
19805;DHT22;10062;51.052;13.756;2023-03-19T15:54:07;16.70;1.00
19805;DHT22;10062;51.052;13.756;2023-03-19T15:56:39;16.60;99.90
19805;DHT22;10062;51.052;13.756;2023-03-19T15:59:11;16.40;1.00
19805;DHT22;10062;51.052;13.756;2023-03-19T16:01:44;16.30;99.90
19805;DHT22;10062;51.052;13.756;2023-03-19T16:04:18;16.20;99.90
19805;DHT22;10062;51.052;13.756;2023-03-19T16:06:52;16.20;1.00
19805;DHT22;10062;51.052;13.756;2023-03-19T16:09:25;16.30;1.00
19805;DHT22;10062;51.052;13.756;2023-03-19T16:11:58;16.20;1.00
19805;DHT22;10062;51.052;13.756;2023-03-19T16:14:32;16.10;1.00
19805;DHT22;10062;51.052;13.756;2023-03-19T16:17:12;16.00;1.00
19805;DHT22;10062;51.052;13.756;2023-03-19T16:19:51;16.00;1.20
19805;DHT22;10062;51.052;13.756;2023-03-19T16:22:26;16.00;1.00
19805;DHT22;10062;51.052;13.756;2023-03-19T16:24:59;15.90;24.20
19805;DHT22;10062;51.052;13.756;2023-03-19T16:27:35;15.80;96.20
19805;DHT22;10062;51.052;13.756;2023-03-19T16:30:16;15.70;1.00
19805;DHT22;10062;51.052;13.756;2023-03-19T16:33:01;15.80;99.90
19805;DHT22;10062;51.052;13.756;2023-03-19T16:35:33;15.70;99.90
19805;DHT22;10062;51.052;13.756;2023-03-19T16:38:11;15.60;1.00
19805;DHT22;10062;51.052;13.756;2023-03-19T16:40:46;15.40;1.00
19805;DHT22;10062;51.052;13.756;2023-03-19T16:43:19;15.40;1.00
19805;DHT22;10062;51.052;13.756;2023-03-19T16:46:04;15.30;1.00